Aviation Digital Data Service (ADDS)

Output produced by METARs form (1731 UTC 20 January 2019)
found at http://www.aviationweather.gov/metar/data/
 
HDAM 201600Z 12010KT 9999 FEW020 27/23 Q1017
HDAM 201700Z 2018/2118 VRB03KT CAVOK 
     BECMG 2100/2106 00000KT FEW020 
     BECMG 2106/2112 10010KT SCT020 
     BECMG 2112/2115 08010KT CAVOK